createdAt,value
2022-10-19T00:01:39.205Z,98517.72
2022-10-19T00:04:08.668Z,98516.44
2022-10-19T00:06:36.876Z,98516.19
2022-10-19T00:09:14.898Z,98517.50
2022-10-19T00:11:43.790Z,98516.03
2022-10-19T00:14:17.865Z,98510.53
2022-10-19T00:16:46.366Z,98515.28
2022-10-19T00:19:21.930Z,98519.53
2022-10-19T00:24:20.466Z,98513.13
2022-10-19T00:26:47.282Z,98513.84
2022-10-19T00:29:14.735Z,98515.88
2022-10-19T00:31:41.858Z,98518.03
2022-10-19T00:34:08.645Z,98512.38
2022-10-19T00:36:38.709Z,98519.94
2022-10-19T00:39:07.513Z,98520.06
2022-10-19T00:41:36.625Z,98507.44
2022-10-19T00:44:33.805Z,98505.28
2022-10-19T00:47:03.807Z,98506.56
2022-10-19T00:49:36.165Z,98507.84
2022-10-19T00:52:04.633Z,98507.13
2022-10-19T00:54:33.039Z,98504.69
2022-10-19T00:57:00.132Z,98503.25
2022-10-19T00:59:31.805Z,98498.47
2022-10-19T01:01:59.348Z,98505.53
2022-10-19T01:04:29.219Z,98491.91
2022-10-19T01:06:56.990Z,98496.94
2022-10-19T01:09:23.623Z,98496.69
2022-10-19T01:12:26.785Z,98495.66
2022-10-19T01:15:41.558Z,98491.84
2022-10-19T01:18:30.608Z,98489.25
2022-10-19T01:21:25.270Z,98497.34
2022-10-19T01:24:26.230Z,98502.69
2022-10-19T01:27:51.173Z,98499.78
2022-10-19T01:30:33.428Z,98493.53
2022-10-19T01:33:18.661Z,98493.72
2022-10-19T01:36:09.294Z,98492.09
2022-10-19T01:39:13.366Z,98488.31
2022-10-19T01:42:18.570Z,98480.97
2022-10-19T01:48:12.425Z,98491.09
2022-10-19T01:50:59.144Z,98492.56
2022-10-19T01:53:28.474Z,98496.19
2022-10-19T01:55:56.764Z,98494.00
2022-10-19T01:58:28.331Z,98499.50
2022-10-19T02:00:57.357Z,98496.25
2022-10-19T02:03:44.121Z,98491.16
2022-10-19T02:06:12.729Z,98487.88
2022-10-19T02:08:46.263Z,98496.59
2022-10-19T02:11:12.971Z,98496.03
2022-10-19T02:13:41.535Z,98490.91
2022-10-19T02:16:29.758Z,98491.72
2022-10-19T02:18:59.123Z,98491.19
2022-10-19T02:21:26.712Z,98491.00
2022-10-19T02:23:54.271Z,98488.03
2022-10-19T02:26:21.770Z,98486.06
2022-10-19T02:28:48.885Z,98482.56
2022-10-19T02:31:15.726Z,98475.81
2022-10-19T02:33:42.467Z,98483.88
2022-10-19T02:36:09.120Z,98479.50
2022-10-19T02:38:35.906Z,98487.03
2022-10-19T02:41:11.353Z,98475.47
2022-10-19T02:43:41.091Z,98484.59
2022-10-19T02:46:14.011Z,98487.19
2022-10-19T02:48:41.374Z,98480.22
2022-10-19T02:51:27.245Z,98480.97
2022-10-19T02:53:54.100Z,98488.47
2022-10-19T02:56:21.062Z,98484.28
2022-10-19T02:58:47.667Z,98483.38
2022-10-19T03:01:14.965Z,98476.59
2022-10-19T03:03:41.563Z,98474.56
2022-10-19T03:06:08.524Z,98479.34
2022-10-19T03:08:35.166Z,98476.59
2022-10-19T03:11:01.745Z,98480.41
2022-10-19T03:13:28.348Z,98475.06
2022-10-19T03:15:54.993Z,98479.41
2022-10-19T03:18:21.860Z,98469.56
2022-10-19T03:20:48.430Z,98472.16
2022-10-19T03:23:14.959Z,98474.31
2022-10-19T03:25:41.522Z,98471.44
2022-10-19T03:28:08.136Z,98473.78
2022-10-19T03:30:34.964Z,98465.19
2022-10-19T03:33:01.554Z,98467.22
2022-10-19T03:35:28.095Z,98472.16
2022-10-19T03:37:54.657Z,98472.72
2022-10-19T03:40:21.294Z,98478.78
2022-10-19T03:42:48.116Z,98468.66
2022-10-19T03:45:15.435Z,98473.59
2022-10-19T03:47:42.035Z,98470.13
2022-10-19T03:50:11.710Z,98472.31
2022-10-19T03:52:38.310Z,98472.47
2022-10-19T03:55:05.804Z,98471.56
2022-10-19T03:57:32.729Z,98469.72
2022-10-19T03:59:59.777Z,98475.81
2022-10-19T04:02:26.298Z,98469.56
2022-10-19T04:04:52.898Z,98462.06
2022-10-19T04:07:19.717Z,98469.56
2022-10-19T04:09:46.467Z,98469.41
2022-10-19T04:12:13.058Z,98467.94
2022-10-19T04:14:56.186Z,98459.53
2022-10-19T04:17:25.868Z,98463.41
2022-10-19T04:19:52.518Z,98464.69
2022-10-19T04:22:19.030Z,98449.31
2022-10-19T04:24:45.570Z,98456.31
2022-10-19T04:27:12.188Z,98456.31
2022-10-19T04:29:38.859Z,98462.13
2022-10-19T04:32:05.758Z,98450.56
2022-10-19T04:34:35.178Z,98458.06
2022-10-19T04:37:04.333Z,98449.97
2022-10-19T04:39:30.911Z,98448.69
2022-10-19T04:41:57.743Z,98441.72
2022-10-19T04:46:55.797Z,98441.56
2022-10-19T04:49:22.459Z,98438.97
2022-10-19T04:51:49.010Z,98434.06
2022-10-19T04:54:15.847Z,98433.31
2022-10-19T04:56:42.454Z,98434.22
2022-10-19T04:59:10.162Z,98422.47
2022-10-19T05:01:36.961Z,98424.66
2022-10-19T05:04:03.987Z,98423.06
2022-10-19T05:06:31.718Z,98427.81
2022-10-19T05:08:59.322Z,98421.03
2022-10-19T05:11:26.461Z,98422.31
2022-10-19T05:13:53.018Z,98419.56
2022-10-19T05:16:22.289Z,98425.06
2022-10-19T05:18:50.874Z,98418.28
2022-10-19T05:21:19.275Z,98422.47
2022-10-19T05:23:46.140Z,98420.88
2022-10-19T05:26:16.573Z,98416.25
2022-10-19T05:28:47.262Z,98421.44
2022-10-19T05:31:16.182Z,98419.66
2022-10-19T05:33:43.652Z,98421.09
2022-10-19T05:36:27.822Z,98419.66
2022-10-19T05:38:58.126Z,98417.31
2022-10-19T05:41:25.762Z,98420.38
2022-10-19T05:43:57.299Z,98421.84
2022-10-19T05:46:25.181Z,98425.31
2022-10-19T05:48:51.787Z,98426.78
2022-10-19T05:51:20.162Z,98420.88
2022-10-19T05:53:47.181Z,98427.50
2022-10-19T05:56:20.013Z,98424.75
2022-10-19T05:58:47.411Z,98425.47
2022-10-19T06:01:14.554Z,98426.59
2022-10-19T06:03:41.364Z,98435.03
2022-10-19T06:06:09.267Z,98435.75
2022-10-19T06:08:36.744Z,98439.56
2022-10-19T06:11:24.950Z,98448.06
2022-10-19T06:13:55.022Z,98449.19
2022-10-19T06:16:23.866Z,98455.41
2022-10-19T06:18:50.729Z,98455.16
2022-10-19T06:21:21.303Z,98452.72
2022-10-19T06:23:53.313Z,98447.72
2022-10-19T06:26:20.817Z,98450.06
2022-10-19T06:28:48.735Z,98455.88
2022-10-19T06:31:15.971Z,98464.47
2022-10-19T06:33:46.015Z,98468.09
2022-10-19T06:36:18.818Z,98459.84
2022-10-19T06:38:46.232Z,98466.81
2022-10-19T06:41:13.494Z,98465.53
2022-10-19T06:43:40.433Z,98471.75
2022-10-19T06:46:09.526Z,98471.84
2022-10-19T06:48:36.130Z,98468.69
2022-10-19T06:51:06.407Z,98468.28
2022-10-19T06:53:34.694Z,98474.25
2022-10-19T06:56:03.356Z,98475.31
2022-10-19T06:58:30.906Z,98480.59
2022-10-19T07:01:01.304Z,98480.03
2022-10-19T07:03:29.145Z,98473.78
2022-10-19T07:05:57.391Z,98476.72
2022-10-19T07:08:25.190Z,98472.81
2022-10-19T07:11:00.266Z,98476.63
2022-10-19T07:13:28.667Z,98477.53
2022-10-19T07:16:03.578Z,98487.41
2022-10-19T07:18:30.263Z,98481.31
2022-10-19T07:20:59.094Z,98475.41
2022-10-19T07:23:27.849Z,98474.09
2022-10-19T07:26:00.645Z,98470.94
2022-10-19T07:28:28.679Z,98470.19
2022-10-19T07:30:55.698Z,98477.91
2022-10-19T07:33:22.424Z,98485.75
2022-10-19T07:35:49.084Z,98485.59
2022-10-19T07:38:15.812Z,98485.00
2022-10-19T07:40:46.345Z,98492.00
2022-10-19T07:43:14.116Z,98491.25
2022-10-19T07:45:40.680Z,98488.66
2022-10-19T07:48:07.400Z,98491.09
2022-10-19T07:50:33.974Z,98496.91
2022-10-19T07:53:00.612Z,98488.81
2022-10-19T07:55:27.197Z,98498.38
2022-10-19T07:57:53.805Z,98502.59
2022-10-19T08:00:20.425Z,98495.78
2022-10-19T08:03:04.965Z,98505.16
2022-10-19T08:05:34.479Z,98507.78
2022-10-19T08:08:01.281Z,98503.31
2022-10-19T08:10:27.943Z,98508.81
2022-10-19T08:12:54.519Z,98504.94
2022-10-19T08:15:21.088Z,98508.00
2022-10-19T08:17:47.909Z,98506.28
2022-10-19T08:20:14.495Z,98491.84
2022-10-19T08:22:42.009Z,98495.06
2022-10-19T08:25:08.730Z,98508.28
2022-10-19T08:30:03.470Z,98509.16
2022-10-19T08:32:30.062Z,98498.00
2022-10-19T08:34:56.634Z,98506.25
2022-10-19T08:37:40.345Z,98506.06
2022-10-19T08:40:19.287Z,98507.69
2022-10-19T08:43:10.190Z,98506.72
2022-10-19T08:45:51.988Z,98507.59
2022-10-19T08:48:25.398Z,98503.28
2022-10-19T08:50:53.219Z,98496.78
2022-10-19T08:53:54.691Z,98495.06
2022-10-19T08:56:50.064Z,98495.69
2022-10-19T08:59:55.758Z,98498.19
2022-10-19T09:02:52.004Z,98497.97
2022-10-19T09:05:35.856Z,98491.31
2022-10-19T09:08:03.022Z,98490.13
2022-10-19T09:10:35.530Z,98495.81
2022-10-19T09:13:16.570Z,98499.75
2022-10-19T09:15:46.365Z,98505.56
2022-10-19T09:18:21.030Z,98505.84
2022-10-19T09:20:50.333Z,98504.41
2022-10-19T09:23:30.221Z,98510.06
2022-10-19T09:25:57.790Z,98511.97
2022-10-19T09:29:15.538Z,98510.22
2022-10-19T09:31:45.666Z,98510.94
2022-10-19T09:34:22.154Z,98513.03
2022-10-19T09:36:57.438Z,98516.50
2022-10-19T09:39:28.684Z,98518.84
2022-10-19T09:41:59.934Z,98513.47
2022-10-19T09:44:27.600Z,98521.03
2022-10-19T09:47:20.640Z,98521.28
2022-10-19T09:49:49.120Z,98517.97
2022-10-19T09:52:36.167Z,98519.59
2022-10-19T09:55:27.174Z,98520.00
2022-10-19T09:58:03.164Z,98520.63
2022-10-19T10:00:39.687Z,98516.38
2022-10-19T10:03:07.633Z,98522.66
2022-10-19T10:05:39.784Z,98509.13
2022-10-19T10:08:22.714Z,98517.72
2022-10-19T10:11:15.467Z,98503.59
2022-10-19T10:13:44.070Z,98502.00
2022-10-19T10:16:16.745Z,98510.31
2022-10-19T10:18:55.884Z,98504.34
2022-10-19T10:21:47.805Z,98505.66
2022-10-19T10:24:20.307Z,98491.28
2022-10-19T10:26:50.075Z,98494.47
2022-10-19T10:29:26.738Z,98483.28
2022-10-19T10:32:16.424Z,98486.75
2022-10-19T10:34:51.285Z,98496.34
2022-10-19T10:37:40.431Z,98491.28
2022-10-19T10:40:26.405Z,98484.44
2022-10-19T10:42:55.257Z,98490.69
2022-10-19T10:45:37.489Z,98483.72
2022-10-19T10:48:28.768Z,98477.75
2022-10-19T10:50:57.250Z,98470.78
2022-10-19T10:53:44.083Z,98470.78
2022-10-19T10:56:25.358Z,98472.38
2022-10-19T10:59:10.660Z,98470.06
2022-10-19T11:01:41.794Z,98471.34
2022-10-19T11:04:37.287Z,98473.34
2022-10-19T11:07:22.987Z,98469.09
2022-10-19T11:09:57.342Z,98466.06
2022-10-19T11:12:41.627Z,98455.00
2022-10-19T11:15:35.326Z,98449.50
2022-10-19T11:18:15.701Z,98442.88
2022-10-19T11:20:51.810Z,98446.66
2022-10-19T11:23:41.295Z,98445.81
2022-10-19T11:26:26.303Z,98440.84
2022-10-19T11:29:21.550Z,98438.63
2022-10-19T11:31:51.360Z,98431.94
2022-10-19T11:34:39.503Z,98431.75
2022-10-19T11:37:26.043Z,98430.34
2022-10-19T11:40:22.085Z,98421.59
2022-10-19T11:43:31.008Z,98417.84
2022-10-19T11:46:33.535Z,98414.47
2022-10-19T11:49:25.353Z,98411.84
2022-10-19T11:52:12.297Z,98410.22
2022-10-19T11:55:23.297Z,98399.31
2022-10-19T11:57:58.722Z,98398.00
2022-10-19T12:00:45.592Z,98398.00
2022-10-19T12:03:53.981Z,98386.94
2022-10-19T12:07:08.449Z,98392.59
2022-10-19T12:09:55.171Z,98379.47
2022-10-19T12:12:41.675Z,98385.19
2022-10-19T12:15:23.925Z,98381.69
2022-10-19T12:17:52.968Z,98371.81
2022-10-19T12:20:24.184Z,98373.38
2022-10-19T12:22:51.029Z,98372.16
2022-10-19T12:25:19.869Z,98361.94
2022-10-19T12:27:49.158Z,98356.22
2022-10-19T12:30:21.597Z,98355.91
2022-10-19T12:33:22.789Z,98345.47
2022-10-19T12:36:13.778Z,98348.88
2022-10-19T12:39:33.388Z,98339.03
2022-10-19T12:42:22.996Z,98332.03
2022-10-19T12:45:31.197Z,98329.75
2022-10-19T12:48:29.677Z,98326.13
2022-10-19T12:51:02.442Z,98326.13
2022-10-19T12:53:36.211Z,98324.19
2022-10-19T12:56:07.157Z,98318.72
2022-10-19T12:59:01.486Z,98310.75
2022-10-19T13:01:54.784Z,98306.16
2022-10-19T13:04:24.788Z,98302.06
2022-10-19T13:07:18.263Z,98305.03
2022-10-19T13:09:47.577Z,98299.88
2022-10-19T13:12:44.394Z,98301.91
2022-10-19T13:15:56.137Z,98294.78
2022-10-19T13:19:04.383Z,98299.78
2022-10-19T13:22:09.630Z,98299.38
2022-10-19T13:24:37.619Z,98297.00
2022-10-19T13:27:26.819Z,98294.72
2022-10-19T13:29:54.054Z,98302.84
2022-10-19T13:32:37.824Z,98303.31
2022-10-19T13:35:30.680Z,98301.59
2022-10-19T13:41:21.772Z,98302.22
2022-10-19T13:44:35.332Z,98301.78
2022-10-19T13:47:42.591Z,98301.91
2022-10-19T13:50:43.725Z,98298.59
2022-10-19T13:53:40.901Z,98303.13
2022-10-19T13:56:27.702Z,98290.50
2022-10-19T13:59:43.962Z,98290.13
2022-10-19T14:02:50.463Z,98287.22
2022-10-19T14:05:54.563Z,98294.38
2022-10-19T14:09:04.556Z,98284.50
2022-10-19T14:11:37.082Z,98279.06
2022-10-19T14:14:15.749Z,98277.34
2022-10-19T14:16:47.941Z,98273.84
2022-10-19T14:19:26.731Z,98281.16
2022-10-19T14:21:55.611Z,98274.50
2022-10-19T14:24:29.397Z,98275.13
2022-10-19T14:26:56.931Z,98280.50
2022-10-19T14:29:23.686Z,98280.22
2022-10-19T14:31:50.362Z,98276.59
2022-10-19T14:34:16.965Z,98272.44
2022-10-19T14:36:47.156Z,98272.19
2022-10-19T14:39:32.156Z,98267.72
2022-10-19T14:42:09.707Z,98261.78
2022-10-19T14:44:42.119Z,98261.72
2022-10-19T14:47:19.996Z,98269.28
2022-10-19T14:49:47.216Z,98268.16
2022-10-19T14:52:24.637Z,98271.94
2022-10-19T14:54:55.740Z,98263.41
2022-10-19T14:57:36.139Z,98265.84
2022-10-19T15:00:09.990Z,98261.06
2022-10-19T15:02:40.336Z,98268.34
2022-10-19T15:05:19.433Z,98263.00
2022-10-19T15:07:46.893Z,98268.97
2022-10-19T15:10:43.571Z,98259.72
2022-10-19T15:13:22.874Z,98259.56
2022-10-19T15:15:52.326Z,98253.16
2022-10-19T15:18:43.839Z,98247.38
2022-10-19T15:21:21.195Z,98240.72
2022-10-19T15:23:50.438Z,98248.59
2022-10-19T15:26:29.269Z,98242.19
2022-10-19T15:29:12.740Z,98239.88
2022-10-19T15:31:39.528Z,98249.31
2022-10-19T15:34:06.122Z,98253.41
2022-10-19T15:36:33.081Z,98252.53
2022-10-19T15:39:18.175Z,98247.47
2022-10-19T15:41:51.579Z,98253.28
2022-10-19T15:44:42.023Z,98251.41
2022-10-19T15:47:23.251Z,98254.63
2022-10-19T15:50:01.538Z,98255.63
2022-10-19T15:52:34.379Z,98251.13
2022-10-19T15:55:01.448Z,98258.41
2022-10-19T15:57:36.849Z,98257.25
2022-10-19T16:00:16.440Z,98261.72
2022-10-19T16:02:43.637Z,98262.03
2022-10-19T16:05:10.936Z,98257.53
2022-10-19T16:07:39.565Z,98264.03
2022-10-19T16:10:07.233Z,98262.31
2022-10-19T16:12:33.951Z,98263.31
2022-10-19T16:15:00.750Z,98263.59
2022-10-19T16:17:27.475Z,98275.19
2022-10-19T16:19:54.061Z,98267.06
2022-10-19T16:22:20.675Z,98277.06
2022-10-19T16:24:47.491Z,98285.09
2022-10-19T16:27:16.105Z,98284.19
2022-10-19T16:29:44.361Z,98285.34
2022-10-19T16:32:10.975Z,98280.41
2022-10-19T16:34:38.054Z,98281.56
2022-10-19T16:37:06.943Z,98277.94
2022-10-19T16:39:34.651Z,98283.84
2022-10-19T16:42:01.501Z,98282.25
2022-10-19T16:44:28.084Z,98282.09
2022-10-19T16:46:56.972Z,98286.16
2022-10-19T16:49:23.877Z,98282.53
2022-10-19T16:51:53.364Z,98296.69
2022-10-19T16:54:23.530Z,98296.41
2022-10-19T16:56:50.158Z,98292.25
2022-10-19T16:59:18.910Z,98292.53
2022-10-19T17:01:47.061Z,98300.47
2022-10-19T17:04:15.938Z,98297.41
2022-10-19T17:06:42.773Z,98300.41
2022-10-19T17:11:56.491Z,98307.63
2022-10-19T17:14:23.312Z,98312.63
2022-10-19T17:16:49.920Z,98314.03
2022-10-19T17:19:16.576Z,98322.69
2022-10-19T17:21:43.534Z,98326.97
2022-10-19T17:24:21.151Z,98321.72
2022-10-19T17:26:50.846Z,98328.34
2022-10-19T17:29:18.056Z,98329.31
2022-10-19T17:31:44.666Z,98329.00
2022-10-19T17:34:11.896Z,98337.25
2022-10-19T17:39:25.642Z,98336.00
2022-10-19T17:42:02.291Z,98340.75
2022-10-19T17:44:30.921Z,98340.34
2022-10-19T17:46:57.901Z,98349.94
2022-10-19T17:49:24.509Z,98348.31
2022-10-19T17:51:53.698Z,98348.66
2022-10-19T17:54:20.610Z,98348.97
2022-10-19T17:56:47.324Z,98339.47
2022-10-19T17:59:14.491Z,98345.25
2022-10-19T18:01:41.658Z,98345.19
2022-10-19T18:04:08.278Z,98349.00
2022-10-19T18:06:36.714Z,98352.09
2022-10-19T18:09:06.230Z,98341.75
2022-10-19T18:11:37.234Z,98347.00
2022-10-19T18:14:05.055Z,98358.50
2022-10-19T18:16:37.964Z,98353.91
2022-10-19T18:19:06.862Z,98358.75
2022-10-19T18:21:38.502Z,98363.38
2022-10-19T18:24:09.068Z,98355.84
2022-10-19T18:26:39.451Z,98363.69
2022-10-19T18:29:16.270Z,98364.25
2022-10-19T18:31:43.237Z,98362.78
2022-10-19T18:34:16.504Z,98360.63
2022-10-19T18:36:43.730Z,98358.09
2022-10-19T18:39:11.641Z,98357.78
2022-10-19T18:41:38.578Z,98355.97
2022-10-19T18:44:06.422Z,98356.13
2022-10-19T18:46:35.162Z,98360.94
2022-10-19T18:49:03.373Z,98368.13
2022-10-19T18:51:32.206Z,98375.25
2022-10-19T18:53:59.024Z,98370.00
2022-10-19T18:56:26.782Z,98365.06
2022-10-19T18:58:53.427Z,98377.25
2022-10-19T19:01:24.070Z,98379.81
2022-10-19T19:03:52.603Z,98375.63
2022-10-19T19:06:29.410Z,98374.13
2022-10-19T19:09:00.664Z,98369.16
2022-10-19T19:11:35.932Z,98370.63
2022-10-19T19:14:15.538Z,98371.50
2022-10-19T19:16:43.423Z,98373.94
2022-10-19T19:19:13.097Z,98373.34
2022-10-19T19:21:43.531Z,98373.94
2022-10-19T19:24:12.893Z,98373.75
2022-10-19T19:26:43.114Z,98367.19
2022-10-19T19:29:09.749Z,98375.91
2022-10-19T19:31:36.431Z,98379.78
2022-10-19T19:34:06.277Z,98383.28
2022-10-19T19:36:33.453Z,98390.22
2022-10-19T19:39:00.174Z,98393.75
2022-10-19T19:41:28.873Z,98387.03
2022-10-19T19:43:58.204Z,98388.88
2022-10-19T19:46:24.809Z,98396.91
2022-10-19T19:48:51.401Z,98395.66
2022-10-19T19:51:20.497Z,98389.06
2022-10-19T19:53:48.304Z,98398.91
2022-10-19T19:56:16.534Z,98392.34
2022-10-19T19:58:44.374Z,98399.31
2022-10-19T20:01:13.868Z,98396.59
2022-10-19T20:03:41.336Z,98400.06
2022-10-19T20:06:09.238Z,98405.19
2022-10-19T20:08:37.355Z,98401.03
2022-10-19T20:11:09.737Z,98399.94
2022-10-19T20:13:37.691Z,98393.53
2022-10-19T20:16:13.113Z,98402.91
2022-10-19T20:18:41.180Z,98402.38
2022-10-19T20:21:07.893Z,98412.63
2022-10-19T20:23:34.442Z,98400.00
2022-10-19T20:26:01.450Z,98424.88
2022-10-19T20:28:28.707Z,98419.75
2022-10-19T20:31:07.531Z,98427.44
2022-10-19T20:33:36.178Z,98417.03
2022-10-19T20:36:15.498Z,98424.88
2022-10-19T20:38:52.892Z,98421.03
2022-10-19T20:41:22.036Z,98431.09
2022-10-19T20:43:49.024Z,98429.44
2022-10-19T20:46:22.243Z,98425.06
2022-10-19T20:48:50.301Z,98429.81
2022-10-19T20:51:30.660Z,98434.75
2022-10-19T20:54:00.994Z,98423.06
2022-10-19T20:56:30.201Z,98422.34
2022-10-19T20:59:05.619Z,98435.84
2022-10-19T21:01:34.584Z,98430.34
2022-10-19T21:04:04.607Z,98433.09
2022-10-19T21:06:34.244Z,98433.47
2022-10-19T21:09:01.507Z,98430.72
2022-10-19T21:11:34.748Z,98430.72
2022-10-19T21:14:03.923Z,98429.59
2022-10-19T21:16:33.612Z,98432.66
2022-10-19T21:19:01.810Z,98433.25
2022-10-19T21:21:30.888Z,98433.59
2022-10-19T21:24:00.869Z,98437.97
2022-10-19T21:26:28.633Z,98428.88
2022-10-19T21:28:55.838Z,98430.16
2022-10-19T21:31:25.013Z,98434.53
2022-10-19T21:33:52.594Z,98429.94
2022-10-19T21:36:21.515Z,98430.13
2022-10-19T21:38:48.494Z,98436.84
2022-10-19T21:41:20.853Z,98433.59
2022-10-19T21:43:50.615Z,98436.09
2022-10-19T21:46:19.473Z,98436.22
2022-10-19T21:48:46.258Z,98434.81
2022-10-19T21:51:54.550Z,98430.59
2022-10-19T21:54:24.745Z,98441.69
2022-10-19T21:56:51.844Z,98441.50
2022-10-19T21:59:19.146Z,98440.44
2022-10-19T22:01:45.826Z,98442.19
2022-10-19T22:04:14.615Z,98440.34
2022-10-19T22:06:42.424Z,98445.47
2022-10-19T22:09:13.254Z,98440.19
2022-10-19T22:11:40.050Z,98443.31
2022-10-19T22:14:06.661Z,98440.19
2022-10-19T22:16:35.102Z,98443.97
2022-10-19T22:19:01.882Z,98435.03
2022-10-19T22:21:30.713Z,98433.72
2022-10-19T22:24:03.595Z,98430.03
2022-10-19T22:26:33.914Z,98430.63
2022-10-19T22:29:01.814Z,98424.81
2022-10-19T22:31:30.175Z,98423.34
2022-10-19T22:33:57.111Z,98421.91
2022-10-19T22:36:23.909Z,98411.88
2022-10-19T22:38:50.627Z,98414.81
2022-10-19T22:41:17.330Z,98409.81
2022-10-19T22:43:44.089Z,98404.16
2022-10-19T22:46:10.641Z,98405.00
2022-10-19T22:48:37.445Z,98398.97
2022-10-19T22:51:03.958Z,98407.16
2022-10-19T22:53:30.569Z,98401.66
2022-10-19T22:55:57.348Z,98400.75
2022-10-19T22:58:23.934Z,98402.91
2022-10-19T23:01:09.384Z,98403.97
2022-10-19T23:03:36.175Z,98406.16
2022-10-19T23:06:03.086Z,98407.06
2022-10-19T23:08:29.763Z,98399.75
2022-10-19T23:10:56.577Z,98399.69
2022-10-19T23:13:23.797Z,98389.31
2022-10-19T23:15:53.394Z,98382.28
2022-10-19T23:18:20.019Z,98383.91
2022-10-19T23:20:54.199Z,98383.34
2022-10-19T23:23:20.866Z,98380.56
2022-10-19T23:26:20.156Z,98370.59
2022-10-19T23:28:49.238Z,98375.56
2022-10-19T23:31:24.217Z,98384.69
2022-10-19T23:33:51.594Z,98381.19
2022-10-19T23:36:20.188Z,98376.66
2022-10-19T23:38:48.754Z,98382.81
2022-10-19T23:41:15.935Z,98377.63
2022-10-19T23:43:42.548Z,98378.56
2022-10-19T23:46:09.644Z,98383.31
2022-10-19T23:48:36.926Z,98383.69
2022-10-19T23:51:09.124Z,98380.97
2022-10-19T23:53:40.772Z,98375.16
2022-10-19T23:56:22.601Z,98367.50
2022-10-19T23:58:50.066Z,98364.06
